createdAt,value
2017-09-10T00:01:27.304Z,94604
2017-09-10T00:06:56.334Z,94610
2017-09-10T00:12:29.980Z,94603
2017-09-10T00:17:58.167Z,94599
2017-09-10T00:23:26.314Z,94615
2017-09-10T00:28:54.496Z,94608
2017-09-10T00:34:22.643Z,94608
2017-09-10T00:39:50.965Z,94600
2017-09-10T00:45:19.124Z,94585
2017-09-10T00:50:47.255Z,94588
2017-09-10T00:56:15.490Z,94581
2017-09-10T01:01:43.627Z,94587
2017-09-10T01:07:12.534Z,94588
2017-09-10T01:12:40.683Z,94589
2017-09-10T01:18:08.824Z,94593
2017-09-10T01:23:36.976Z,94588
2017-09-10T01:29:05.886Z,94593
2017-09-10T01:34:34.034Z,94604
2017-09-10T01:40:02.202Z,94609
2017-09-10T01:45:30.379Z,94617
2017-09-10T01:50:58.565Z,94614
2017-09-10T01:56:27.190Z,94613
2017-09-10T02:02:03.776Z,94619
2017-09-10T02:07:33.011Z,94622
2017-09-10T02:13:01.158Z,94634
2017-09-10T02:18:29.313Z,94627
2017-09-10T02:23:57.496Z,94624
2017-09-10T02:29:25.650Z,94620
2017-09-10T02:34:53.800Z,94626
2017-09-10T02:40:21.941Z,94613
2017-09-10T02:45:50.855Z,94619
2017-09-10T02:51:18.998Z,94615
2017-09-10T02:56:47.150Z,94614
2017-09-10T03:02:15.278Z,94620
2017-09-10T03:07:44.201Z,94617
2017-09-10T03:13:12.348Z,94627
2017-09-10T03:18:41.276Z,94615
2017-09-10T03:24:10.191Z,94631
2017-09-10T03:29:38.402Z,94646
2017-09-10T03:35:06.541Z,94648
2017-09-10T03:40:34.698Z,94647
2017-09-10T03:46:02.870Z,94652
2017-09-10T03:51:31.037Z,94660
2017-09-10T03:56:59.184Z,94659
2017-09-10T04:02:27.344Z,94676
2017-09-10T04:07:59.762Z,94684
2017-09-10T04:13:27.928Z,94715
2017-09-10T04:18:56.072Z,94709
2017-09-10T04:24:24.199Z,94699
2017-09-10T04:29:53.103Z,94709
2017-09-10T04:35:21.253Z,94716
2017-09-10T04:40:49.395Z,94720
2017-09-10T04:46:17.525Z,94729
2017-09-10T04:51:45.671Z,94735
2017-09-10T04:57:13.818Z,94731
2017-09-10T05:02:41.954Z,94736
2017-09-10T05:08:10.086Z,94735
2017-09-10T05:13:38.233Z,94742
2017-09-10T05:19:07.265Z,94745
2017-09-10T05:24:35.438Z,94754
2017-09-10T05:30:03.603Z,94767
2017-09-10T05:35:31.770Z,94769
2017-09-10T05:41:00.734Z,94764
2017-09-10T05:46:29.935Z,94773
2017-09-10T05:51:58.093Z,94786
2017-09-10T05:57:26.268Z,94803
2017-09-10T06:02:55.172Z,94797
2017-09-10T06:08:23.324Z,94798
2017-09-10T06:13:51.486Z,94807
2017-09-10T06:19:19.653Z,94789
2017-09-10T06:24:47.832Z,94795
2017-09-10T06:30:15.977Z,94804
2017-09-10T06:35:44.136Z,94800
2017-09-10T06:41:12.271Z,94813
2017-09-10T06:46:40.472Z,94821
2017-09-10T06:52:08.627Z,94829
2017-09-10T06:57:36.785Z,94842
2017-09-10T07:03:04.933Z,94843
2017-09-10T07:08:33.102Z,94855
2017-09-10T07:14:01.368Z,94859
2017-09-10T07:19:29.529Z,94870
2017-09-10T07:24:57.697Z,94867
2017-09-10T07:30:25.848Z,94870
2017-09-10T07:35:53.987Z,94894
2017-09-10T07:41:22.152Z,94889
2017-09-10T07:46:50.916Z,94895
2017-09-10T07:52:19.067Z,94904
2017-09-10T07:57:47.236Z,94901
2017-09-10T08:03:15.386Z,94908
2017-09-10T08:08:43.701Z,94920
2017-09-10T08:14:13.560Z,94925
2017-09-10T08:19:41.706Z,94909
2017-09-10T08:25:11.826Z,94894
2017-09-10T08:30:39.962Z,94918
2017-09-10T08:36:08.199Z,94925
2017-09-10T08:41:36.353Z,94936
2017-09-10T08:47:05.415Z,94936
2017-09-10T08:52:33.609Z,94950
2017-09-10T08:58:02.674Z,94947
2017-09-10T09:03:30.874Z,94950
2017-09-10T09:09:01.713Z,94946
2017-09-10T09:14:33.797Z,94952
2017-09-10T09:20:02.195Z,94952
2017-09-10T09:25:30.492Z,94950
2017-09-10T09:31:00.052Z,94949
2017-09-10T09:36:28.640Z,94961
2017-09-10T09:41:57.487Z,94963
2017-09-10T09:47:25.743Z,94956
2017-09-10T09:52:54.008Z,94964
2017-09-10T09:58:22.298Z,94962
2017-09-10T10:03:51.278Z,94959
2017-09-10T10:09:20.226Z,94967
2017-09-10T10:14:48.412Z,94962
2017-09-10T10:20:17.662Z,94960
2017-09-10T10:25:45.810Z,94957
2017-09-10T10:31:13.969Z,94952
2017-09-10T10:36:42.152Z,94942
2017-09-10T10:42:11.291Z,94940
2017-09-10T10:47:40.193Z,94929
2017-09-10T10:53:08.361Z,94925
2017-09-10T10:58:36.513Z,94915
2017-09-10T11:04:06.567Z,94908
2017-09-10T11:09:35.487Z,94905
2017-09-10T11:15:03.630Z,94893
2017-09-10T11:20:31.793Z,94892
2017-09-10T11:25:59.961Z,94897
2017-09-10T11:31:29.068Z,94884
2017-09-10T11:36:58.486Z,94891
2017-09-10T11:42:29.022Z,94896
2017-09-10T11:47:59.286Z,94898
2017-09-10T11:53:29.428Z,94904
2017-09-10T11:58:57.605Z,94914
2017-09-10T12:04:27.853Z,94900
2017-09-10T12:09:56.015Z,94894
2017-09-10T12:15:30.340Z,94911
2017-09-10T12:20:59.454Z,94927
2017-09-10T12:26:28.716Z,94935
2017-09-10T12:31:56.984Z,94932
2017-09-10T12:37:25.306Z,94931
2017-09-10T12:42:54.241Z,94936
2017-09-10T12:48:24.344Z,94941
2017-09-10T12:53:52.505Z,94940
2017-09-10T12:59:20.654Z,94938
2017-09-10T13:04:48.856Z,94927
2017-09-10T13:10:17.897Z,94932
2017-09-10T13:15:46.070Z,94938
2017-09-10T13:21:14.230Z,94923
2017-09-10T13:26:42.405Z,94924
2017-09-10T13:32:10.592Z,94925
2017-09-10T13:37:39.714Z,94913
2017-09-10T13:43:07.917Z,94908
2017-09-10T13:48:36.932Z,94908
2017-09-10T13:54:05.398Z,94891
2017-09-10T13:59:33.571Z,94888
2017-09-10T14:05:01.764Z,94878
2017-09-10T14:10:30.705Z,94858
2017-09-10T14:16:02.207Z,94876
2017-09-10T14:21:30.375Z,94852
2017-09-10T14:26:59.556Z,94848
2017-09-10T14:32:28.490Z,94842
2017-09-10T14:37:56.738Z,94856
2017-09-10T14:43:24.894Z,94897
2017-09-10T14:48:53.111Z,94898
2017-09-10T14:54:21.259Z,94894
2017-09-10T14:59:49.785Z,94877
2017-09-10T15:05:24.050Z,94886
2017-09-10T15:10:52.216Z,94889
2017-09-10T15:16:20.393Z,94896
2017-09-10T15:21:48.548Z,94898
2017-09-10T15:27:16.902Z,94902
2017-09-10T15:32:45.965Z,94905
2017-09-10T15:38:14.256Z,94898
2017-09-10T15:43:42.583Z,94885
2017-09-10T15:49:10.835Z,94890
2017-09-10T15:54:39.141Z,94897
2017-09-10T16:00:07.693Z,94902
2017-09-10T16:05:37.011Z,94907
2017-09-10T16:11:06.355Z,94909
2017-09-10T16:16:35.591Z,94908
2017-09-10T16:22:03.897Z,94915
2017-09-10T16:27:32.189Z,94922
2017-09-10T16:33:00.573Z,94912
2017-09-10T16:38:29.260Z,94919
2017-09-10T16:43:59.646Z,94906
2017-09-10T16:49:29.553Z,94895
2017-09-10T16:54:59.673Z,94897
2017-09-10T17:00:28.033Z,94895
2017-09-10T17:05:56.531Z,94893
2017-09-10T17:11:26.402Z,94893
2017-09-10T17:16:54.626Z,94893
2017-09-10T17:22:22.941Z,94897
2017-09-10T17:27:51.285Z,94906
2017-09-10T17:33:20.572Z,94908
2017-09-10T17:38:48.942Z,94902
2017-09-10T17:44:17.312Z,94906
2017-09-10T17:49:45.616Z,94898
2017-09-10T17:55:13.841Z,94907
2017-09-10T18:00:42.166Z,94915
2017-09-10T18:06:10.625Z,94911
2017-09-10T18:11:38.943Z,94905
2017-09-10T18:17:07.227Z,94912
2017-09-10T18:22:35.610Z,94900
2017-09-10T18:28:04.087Z,94897
2017-09-10T18:33:33.165Z,94890
2017-09-10T18:39:01.565Z,94889
2017-09-10T18:44:29.949Z,94909
2017-09-10T18:49:58.401Z,94907
2017-09-10T18:55:28.342Z,94900
2017-09-10T19:00:56.514Z,94904
2017-09-10T19:06:29.846Z,94914
2017-09-10T19:11:58.039Z,94934
2017-09-10T19:17:26.205Z,94933
2017-09-10T19:22:54.364Z,94934
2017-09-10T19:28:22.502Z,94925
2017-09-10T19:33:52.479Z,94918
2017-09-10T19:39:20.636Z,94930
2017-09-10T19:44:49.925Z,94931
2017-09-10T19:50:18.080Z,94918
2017-09-10T19:55:46.234Z,94928
2017-09-10T20:01:14.398Z,94935
2017-09-10T20:06:42.548Z,94934
2017-09-10T20:12:10.729Z,94933
2017-09-10T20:17:38.881Z,94934
2017-09-10T20:23:07.043Z,94928
2017-09-10T20:28:35.965Z,94928
2017-09-10T20:34:06.946Z,94913
2017-09-10T20:39:35.644Z,94911
2017-09-10T20:45:03.828Z,94914
2017-09-10T20:50:32.025Z,94908
2017-09-10T20:56:00.217Z,94899
2017-09-10T21:01:28.449Z,94869
2017-09-10T21:06:56.622Z,94859
2017-09-10T21:12:24.773Z,94851
2017-09-10T21:17:53.690Z,94845
2017-09-10T21:23:21.996Z,94842
2017-09-10T21:28:50.169Z,94850
2017-09-10T21:34:19.113Z,94858
2017-09-10T21:39:47.583Z,94853
2017-09-10T21:45:16.672Z,94853
2017-09-10T21:50:45.029Z,94852
2017-09-10T21:56:13.180Z,94848
2017-09-10T22:01:41.394Z,94847
2017-09-10T22:07:09.558Z,94843
2017-09-10T22:12:37.735Z,94847
2017-09-10T22:18:05.909Z,94838
2017-09-10T22:23:34.056Z,94838
2017-09-10T22:29:02.234Z,94832
2017-09-10T22:34:30.440Z,94830
2017-09-10T22:39:58.615Z,94831
2017-09-10T22:45:26.809Z,94818
2017-09-10T22:50:55.734Z,94817
2017-09-10T22:56:23.886Z,94809
2017-09-10T23:01:52.055Z,94805
2017-09-10T23:07:20.204Z,94788
2017-09-10T23:12:48.348Z,94788
2017-09-10T23:18:17.288Z,94791
2017-09-10T23:23:45.422Z,94791
2017-09-10T23:29:13.688Z,94774
2017-09-10T23:34:41.933Z,94775
2017-09-10T23:40:10.080Z,94779
2017-09-10T23:45:38.273Z,94764
2017-09-10T23:51:06.421Z,94755
2017-09-10T23:56:34.575Z,94753
